PWSweather.com
Personal Weather Stations
Station Observations

YeovilGB

Lat: 50.949, Lon: -2.627

Elevation: 70

Station Type: Vantage Pro

http://www.yeovil-weather.me.uk/

High Low Average
Temperature 49.7°F9.8°C 44.2°F6.8°C 46.3°F7.9°C
Dew Point 45.4°F7.4°C 40.7°F4.8°C 42.0°F5.6°C
Winds 5.8 mph 9.3 kmh Calm Calm 1.0 mph SW1.6 kmh SW
Wind Gusts 11.5 mph18.5 kmh -- 3.0 mph4.8 kmh
Humidity 92% 79% 85%
Pressure 30.64 in1037.6 mb 30.52 in1033.5 mb -
Precipitation 0.00 in0.0 mm - -
Hour Temp Dew Point Humidity Winds Wind Gusts Pressure Precip Precip Rate Daily Precip Total
12:00 AM 45.4°F7.4°C 40.8°F4.9°C 84% Calm Calm -- 30.63 in1037.3 mb - 0.00 in0.0 mm 0.00 in0.0 mm
12:10 AM 45.4°F7.4°C 40.8°F4.9°C 84% Calm Calm -- 30.63 in1037.3 mb - 0.00 in0.0 mm 0.00 in0.0 mm
12:20 AM 45.4°F7.4°C 40.8°F4.9°C 84% Calm Calm -- 30.63 in1037.3 mb - 0.00 in0.0 mm 0.00 in0.0 mm
12:30 AM 45.4°F7.4°C 40.8°F4.9°C 84% Calm Calm -- 30.63 in1037.3 mb - 0.00 in0.0 mm 0.00 in0.0 mm
12:40 AM 45.4°F7.4°C 40.9°F4.9°C 84% Calm Calm -- 30.63 in1037.3 mb - 0.00 in0.0 mm 0.00 in0.0 mm
12:50 AM 45.5°F7.5°C 40.9°F4.9°C 84% Calm Calm -- 30.63 in1037.3 mb - 0.00 in0.0 mm 0.00 in0.0 mm
01:00 AM 45.4°F7.4°C 40.9°F4.9°C 84% Calm Calm -- 30.63 in1037.3 mb - 0.00 in0.0 mm 0.00 in0.0 mm
01:10 AM 45.4°F7.4°C 40.8°F4.9°C 84% Calm Calm -- 30.63 in1037.3 mb - 0.00 in0.0 mm 0.00 in0.0 mm
01:20 AM 45.4°F7.4°C 41.2°F5.1°C 85% Calm Calm -- 30.62 in1036.9 mb - 0.00 in0.0 mm 0.00 in0.0 mm
01:30 AM 45.4°F7.4°C 41.2°F5.1°C 85% Calm Calm -- 30.62 in1036.9 mb - 0.00 in0.0 mm 0.00 in0.0 mm
01:40 AM 45.4°F7.4°C 41.2°F5.1°C 85% Calm Calm -- 30.62 in1036.9 mb - 0.00 in0.0 mm 0.00 in0.0 mm
01:50 AM 45.5°F7.5°C 41.2°F5.1°C 85% Calm Calm -- 30.62 in1036.9 mb - 0.00 in0.0 mm 0.00 in0.0 mm
02:00 AM 45.5°F7.5°C 41.3°F5.2°C 85% Calm Calm -- 30.62 in1036.9 mb - 0.00 in0.0 mm 0.00 in0.0 mm
02:10 AM 45.4°F7.4°C 41.2°F5.1°C 85% Calm Calm -- 30.62 in1036.9 mb - 0.00 in0.0 mm 0.00 in0.0 mm
02:20 AM 45.5°F7.5°C 41.2°F5.1°C 85% Calm Calm -- 30.62 in1036.9 mb - 0.00 in0.0 mm 0.00 in0.0 mm
02:30 AM 45.5°F7.5°C 41.2°F5.1°C 85% Calm Calm -- 30.62 in1036.9 mb - 0.00 in0.0 mm 0.00 in0.0 mm
02:40 AM 45.4°F7.4°C 41.5°F5.3°C 86% Calm Calm -- 30.62 in1036.9 mb - 0.00 in0.0 mm 0.00 in0.0 mm
02:50 AM 45.4°F7.4°C 41.5°F5.3°C 86% Calm Calm -- 30.62 in1036.9 mb - 0.00 in0.0 mm 0.00 in0.0 mm
03:00 AM 45.3°F7.4°C 41.4°F5.2°C 86% Calm Calm -- 30.62 in1036.9 mb - 0.00 in0.0 mm 0.00 in0.0 mm
03:10 AM 45.3°F7.4°C 41.4°F5.2°C 86% Calm Calm 1.2 mph1.9 kmh 30.62 in1036.9 mb - 0.00 in0.0 mm 0.00 in0.0 mm
03:20 AM 45.4°F7.4°C 41.2°F5.1°C 85% Calm Calm -- 30.62 in1036.9 mb - 0.00 in0.0 mm 0.00 in0.0 mm
03:30 AM 45.4°F7.4°C 41.2°F5.1°C 85% Calm Calm -- 30.62 in1036.9 mb - 0.00 in0.0 mm 0.00 in0.0 mm
03:40 AM 45.4°F7.4°C 41.2°F5.1°C 85% Calm Calm -- 30.62 in1036.9 mb - 0.00 in0.0 mm 0.00 in0.0 mm
03:50 AM 45.3°F7.4°C 41.0°F5.0°C 85% Calm Calm -- 30.62 in1036.9 mb - 0.00 in0.0 mm 0.00 in0.0 mm
04:00 AM 45.2°F7.3°C 41.0°F5.0°C 85% Calm Calm -- 30.62 in1036.9 mb - 0.00 in0.0 mm 0.00 in0.0 mm
04:10 AM 45.1°F7.3°C 40.9°F4.9°C 85% Calm Calm -- 30.62 in1036.9 mb - 0.00 in0.0 mm 0.00 in0.0 mm
04:20 AM 45.0°F7.2°C 40.8°F4.9°C 85% Calm Calm -- 30.62 in1036.9 mb - 0.00 in0.0 mm 0.00 in0.0 mm
04:30 AM 45.0°F7.2°C 41.0°F5.0°C 86% Calm Calm -- 30.62 in1036.9 mb - 0.00 in0.0 mm 0.00 in0.0 mm
04:40 AM 44.9°F7.2°C 41.0°F5.0°C 86% Calm Calm -- 30.62 in1036.9 mb - 0.00 in0.0 mm 0.00 in0.0 mm
05:00 AM 44.9°F7.2°C 41.0°F5.0°C 86% Calm Calm -- 30.62 in1036.9 mb - 0.00 in0.0 mm 0.00 in0.0 mm
05:10 AM 44.9°F7.2°C 41.0°F5.0°C 86% Calm Calm -- 30.62 in1036.9 mb - 0.00 in0.0 mm 0.00 in0.0 mm
05:20 AM 44.9°F7.2°C 41.0°F5.0°C 86% Calm Calm -- 30.62 in1036.9 mb - 0.00 in0.0 mm 0.00 in0.0 mm
05:30 AM 45.0°F7.2°C 41.4°F5.2°C 87% Calm Calm -- 30.62 in1036.9 mb - 0.00 in0.0 mm 0.00 in0.0 mm
05:40 AM 45.1°F7.3°C 41.5°F5.3°C 87% Calm Calm -- 30.62 in1036.9 mb - 0.00 in0.0 mm 0.00 in0.0 mm
05:50 AM 45.1°F7.3°C 41.5°F5.3°C 87% 2.3 mph SW3.7 kmh SW 5.8 mph9.3 kmh 30.62 in1036.9 mb - 0.00 in0.0 mm 0.00 in0.0 mm
06:00 AM 45.2°F7.3°C 41.9°F5.5°C 88% 2.3 mph SW3.7 kmh SW 3.5 mph5.6 kmh 30.62 in1036.9 mb - 0.00 in0.0 mm 0.00 in0.0 mm
06:10 AM 45.2°F7.3°C 41.9°F5.5°C 88% 1.2 mph SW1.9 kmh SW 3.5 mph5.6 kmh 30.62 in1036.9 mb - 0.00 in0.0 mm 0.00 in0.0 mm
06:20 AM 45.1°F7.3°C 41.8°F5.4°C 88% 2.3 mph SW3.7 kmh SW 3.5 mph5.6 kmh 30.62 in1036.9 mb - 0.00 in0.0 mm 0.00 in0.0 mm
06:30 AM 45.1°F7.3°C 41.8°F5.4°C 88% 1.2 mph SW1.9 kmh SW 3.5 mph5.6 kmh 30.62 in1036.9 mb - 0.00 in0.0 mm 0.00 in0.0 mm
06:40 AM 45.1°F7.3°C 41.7°F5.4°C 88% 1.2 mph SW1.9 kmh SW 2.3 mph3.7 kmh 30.62 in1036.9 mb - 0.00 in0.0 mm 0.00 in0.0 mm
06:50 AM 44.9°F7.2°C 41.6°F5.3°C 88% Calm Calm -- 30.62 in1036.9 mb - 0.00 in0.0 mm 0.00 in0.0 mm
07:00 AM 44.6°F7.0°C 41.3°F5.2°C 88% Calm Calm -- 30.62 in1036.9 mb - 0.00 in0.0 mm 0.00 in0.0 mm
07:10 AM 44.5°F6.9°C 41.5°F5.3°C 89% 3.5 mph SW5.6 kmh SW 5.8 mph9.3 kmh 30.63 in1037.3 mb - 0.00 in0.0 mm 0.00 in0.0 mm
07:20 AM 44.4°F6.9°C 41.4°F5.2°C 89% Calm Calm -- 30.63 in1037.3 mb - 0.00 in0.0 mm 0.00 in0.0 mm
07:30 AM 44.2°F6.8°C 41.2°F5.1°C 89% Calm Calm 1.2 mph1.9 kmh 30.63 in1037.3 mb - 0.00 in0.0 mm 0.00 in0.0 mm
07:40 AM 44.2°F6.8°C 41.5°F5.3°C 90% 1.2 mph SW1.9 kmh SW 5.8 mph9.3 kmh 30.63 in1037.3 mb - 0.00 in0.0 mm 0.00 in0.0 mm
07:50 AM 44.3°F6.8°C 41.8°F5.4°C 91% 2.3 mph SW3.7 kmh SW 3.5 mph5.6 kmh 30.63 in1037.3 mb - 0.00 in0.0 mm 0.00 in0.0 mm
08:00 AM 44.3°F6.8°C 41.8°F5.4°C 91% Calm Calm 2.3 mph3.7 kmh 30.63 in1037.3 mb - 0.00 in0.0 mm 0.00 in0.0 mm
08:10 AM 44.3°F6.8°C 41.8°F5.4°C 91% Calm Calm -- 30.64 in1037.6 mb - 0.00 in0.0 mm 0.00 in0.0 mm
08:20 AM 44.2°F6.8°C 41.8°F5.4°C 91% 2.3 mph SW3.7 kmh SW 5.8 mph9.3 kmh 30.64 in1037.6 mb - 0.00 in0.0 mm 0.00 in0.0 mm
08:30 AM 44.2°F6.8°C 41.8°F5.4°C 91% 1.2 mph SSW1.9 kmh SSW 6.9 mph11.1 kmh 30.64 in1037.6 mb - 0.00 in0.0 mm 0.00 in0.0 mm
08:40 AM 44.3°F6.8°C 42.1°F5.6°C 92% Calm Calm 2.3 mph3.7 kmh 30.64 in1037.6 mb - 0.00 in0.0 mm 0.00 in0.0 mm
08:50 AM 44.4°F6.9°C 42.2°F5.7°C 92% Calm Calm -- 30.64 in1037.6 mb - 0.00 in0.0 mm 0.00 in0.0 mm
09:00 AM 44.4°F6.9°C 42.2°F5.7°C 92% Calm Calm -- 30.64 in1037.6 mb - 0.00 in0.0 mm 0.00 in0.0 mm
09:10 AM 44.5°F6.9°C 42.3°F5.7°C 92% 1.2 mph SW1.9 kmh SW 4.6 mph7.4 kmh 30.63 in1037.3 mb - 0.00 in0.0 mm 0.00 in0.0 mm
09:20 AM 44.6°F7.0°C 42.4°F5.8°C 92% 2.3 mph SW3.7 kmh SW 3.5 mph5.6 kmh 30.63 in1037.3 mb - 0.00 in0.0 mm 0.00 in0.0 mm
09:30 AM 44.7°F7.1°C 42.5°F5.8°C 92% 2.3 mph SW3.7 kmh SW 3.5 mph5.6 kmh 30.63 in1037.3 mb - 0.00 in0.0 mm 0.00 in0.0 mm
09:40 AM 44.9°F7.2°C 42.7°F5.9°C 92% 1.2 mph SW1.9 kmh SW 4.6 mph7.4 kmh 30.63 in1037.3 mb - 0.00 in0.0 mm 0.00 in0.0 mm
09:50 AM 45.0°F7.2°C 42.8°F6.0°C 92% 2.3 mph SW3.7 kmh SW 4.6 mph7.4 kmh 30.63 in1037.3 mb - 0.00 in0.0 mm 0.00 in0.0 mm
10:00 AM 45.1°F7.3°C 42.9°F6.1°C 92% 1.2 mph SSW1.9 kmh SSW 3.5 mph5.6 kmh 30.63 in1037.3 mb - 0.00 in0.0 mm 0.00 in0.0 mm
10:10 AM 45.2°F7.3°C 43.0°F6.1°C 92% 3.5 mph SSW5.6 kmh SSW 4.6 mph7.4 kmh 30.63 in1037.3 mb - 0.00 in0.0 mm 0.00 in0.0 mm
10:20 AM 45.4°F7.4°C 43.2°F6.2°C 92% 4.6 mph SW7.4 kmh SW 5.8 mph9.3 kmh 30.63 in1037.3 mb - 0.00 in0.0 mm 0.00 in0.0 mm
10:30 AM 45.7°F7.6°C 43.5°F6.4°C 92% 2.3 mph SW3.7 kmh SW 3.5 mph5.6 kmh 30.63 in1037.3 mb - 0.00 in0.0 mm 0.00 in0.0 mm
10:40 AM 45.9°F7.7°C 43.7°F6.5°C 92% 2.3 mph SW3.7 kmh SW 5.8 mph9.3 kmh 30.63 in1037.3 mb - 0.00 in0.0 mm 0.00 in0.0 mm
10:50 AM 46.2°F7.9°C 44.0°F6.7°C 92% 2.3 mph SSW3.7 kmh SSW 5.8 mph9.3 kmh 30.63 in1037.3 mb - 0.00 in0.0 mm 0.00 in0.0 mm
11:00 AM 46.4°F8.0°C 44.0°F6.7°C 91% 5.8 mph SW9.3 kmh SW 8.1 mph13.0 kmh 30.62 in1036.9 mb - 0.00 in0.0 mm 0.00 in0.0 mm
11:10 AM 46.6°F8.1°C 44.1°F6.7°C 91% 5.8 mph SW9.3 kmh SW 6.9 mph11.1 kmh 30.62 in1036.9 mb - 0.00 in0.0 mm 0.00 in0.0 mm
11:20 AM 46.8°F8.2°C 44.0°F6.7°C 90% 4.6 mph SW7.4 kmh SW 8.1 mph13.0 kmh 30.62 in1036.9 mb - 0.00 in0.0 mm 0.00 in0.0 mm
11:30 AM 47.1°F8.4°C 44.3°F6.8°C 90% 2.3 mph SSW3.7 kmh SSW 4.6 mph7.4 kmh 30.62 in1036.9 mb - 0.00 in0.0 mm 0.00 in0.0 mm
11:40 AM 47.4°F8.6°C 44.6°F7.0°C 90% 4.6 mph SW7.4 kmh SW 10.4 mph16.7 kmh 30.61 in1036.6 mb - 0.00 in0.0 mm 0.00 in0.0 mm
11:50 AM 47.8°F8.8°C 44.7°F7.1°C 89% 5.8 mph SW9.3 kmh SW 9.2 mph14.8 kmh 30.62 in1036.9 mb - 0.00 in0.0 mm 0.00 in0.0 mm
12:00 PM 48.1°F8.9°C 44.7°F7.1°C 88% 4.6 mph SSW7.4 kmh SSW 5.8 mph9.3 kmh 30.62 in1036.9 mb - 0.00 in0.0 mm 0.00 in0.0 mm
12:10 PM 48.3°F9.1°C 44.6°F7.0°C 87% 5.8 mph SW9.3 kmh SW 11.5 mph18.5 kmh 30.62 in1036.9 mb - 0.00 in0.0 mm 0.00 in0.0 mm
12:20 PM 49.1°F9.5°C 45.4°F7.4°C 87% 4.6 mph SW7.4 kmh SW 9.2 mph14.8 kmh 30.61 in1036.6 mb - 0.00 in0.0 mm 0.00 in0.0 mm
12:30 PM 49.7°F9.8°C 45.1°F7.3°C 84% 3.5 mph SW5.6 kmh SW 5.8 mph9.3 kmh 30.61 in1036.6 mb - 0.00 in0.0 mm 0.00 in0.0 mm
12:40 PM 49.6°F9.8°C 44.6°F7.0°C 83% 5.8 mph SW9.3 kmh SW 9.2 mph14.8 kmh 30.61 in1036.6 mb - 0.00 in0.0 mm 0.00 in0.0 mm
01:00 PM 48.2°F9.0°C 43.9°F6.6°C 85% 2.3 mph SSW3.7 kmh SSW 4.6 mph7.4 kmh 30.60 in1036.2 mb - 0.00 in0.0 mm 0.00 in0.0 mm
01:10 PM 48.2°F9.0°C 44.2°F6.8°C 86% 2.3 mph SSW3.7 kmh SSW 4.6 mph7.4 kmh 30.60 in1036.2 mb - 0.00 in0.0 mm 0.00 in0.0 mm
01:20 PM 48.4°F9.1°C 44.4°F6.9°C 86% 1.2 mph SW1.9 kmh SW 5.8 mph9.3 kmh 30.60 in1036.2 mb - 0.00 in0.0 mm 0.00 in0.0 mm
01:30 PM 48.5°F9.2°C 44.2°F6.8°C 85% 1.2 mph SW1.9 kmh SW 4.6 mph7.4 kmh 30.59 in1035.9 mb - 0.00 in0.0 mm 0.00 in0.0 mm
01:40 PM 48.6°F9.2°C 44.0°F6.7°C 84% 1.2 mph SSW1.9 kmh SSW 4.6 mph7.4 kmh 30.59 in1035.9 mb - 0.00 in0.0 mm 0.00 in0.0 mm
01:50 PM 48.7°F9.3°C 44.1°F6.7°C 84% Calm Calm 4.6 mph7.4 kmh 30.59 in1035.9 mb - 0.00 in0.0 mm 0.00 in0.0 mm
02:00 PM 48.8°F9.3°C 44.2°F6.8°C 84% 1.2 mph SSW1.9 kmh SSW 3.5 mph5.6 kmh 30.59 in1035.9 mb - 0.00 in0.0 mm 0.00 in0.0 mm
02:10 PM 48.8°F9.3°C 44.2°F6.8°C 84% Calm Calm 4.6 mph7.4 kmh 30.59 in1035.9 mb - 0.00 in0.0 mm 0.00 in0.0 mm
02:20 PM 48.8°F9.3°C 43.9°F6.6°C 83% 3.5 mph SSW5.6 kmh SSW 5.8 mph9.3 kmh 30.58 in1035.6 mb - 0.00 in0.0 mm 0.00 in0.0 mm
02:30 PM 48.7°F9.3°C 43.5°F6.4°C 82% 2.3 mph SW3.7 kmh SW 6.9 mph11.1 kmh 30.58 in1035.6 mb - 0.00 in0.0 mm 0.00 in0.0 mm
02:40 PM 48.6°F9.2°C 43.4°F6.3°C 82% 1.2 mph SW1.9 kmh SW 6.9 mph11.1 kmh 30.58 in1035.6 mb - 0.00 in0.0 mm 0.00 in0.0 mm
02:50 PM 48.5°F9.2°C 42.9°F6.1°C 81% 1.2 mph SSW1.9 kmh SSW 4.6 mph7.4 kmh 30.58 in1035.6 mb - 0.00 in0.0 mm 0.00 in0.0 mm
03:00 PM 48.4°F9.1°C 43.2°F6.2°C 82% Calm Calm 3.5 mph5.6 kmh 30.58 in1035.6 mb - 0.00 in0.0 mm 0.00 in0.0 mm
03:10 PM 48.3°F9.1°C 42.7°F5.9°C 81% Calm Calm 2.3 mph3.7 kmh 30.58 in1035.6 mb - 0.00 in0.0 mm 0.00 in0.0 mm
03:20 PM 48.2°F9.0°C 43.0°F6.1°C 82% 2.3 mph SW3.7 kmh SW 3.5 mph5.6 kmh 30.59 in1035.9 mb - 0.00 in0.0 mm 0.00 in0.0 mm
03:30 PM 48.1°F8.9°C 42.9°F6.1°C 82% Calm Calm 2.3 mph3.7 kmh 30.58 in1035.6 mb - 0.00 in0.0 mm 0.00 in0.0 mm
03:40 PM 47.9°F8.8°C 42.7°F5.9°C 82% Calm Calm 2.3 mph3.7 kmh 30.58 in1035.6 mb - 0.00 in0.0 mm 0.00 in0.0 mm
03:50 PM 47.8°F8.8°C 42.6°F5.9°C 82% 3.5 mph SW5.6 kmh SW 5.8 mph9.3 kmh 30.58 in1035.6 mb - 0.00 in0.0 mm 0.00 in0.0 mm
04:00 PM 47.7°F8.7°C 42.5°F5.8°C 82% Calm Calm -- 30.58 in1035.6 mb - 0.00 in0.0 mm 0.00 in0.0 mm
04:10 PM 47.6°F8.7°C 42.4°F5.8°C 82% 2.3 mph SW3.7 kmh SW 4.6 mph7.4 kmh 30.58 in1035.6 mb - 0.00 in0.0 mm 0.00 in0.0 mm
04:20 PM 47.5°F8.6°C 42.3°F5.7°C 82% 1.2 mph SW1.9 kmh SW -- 30.58 in1035.6 mb - 0.00 in0.0 mm 0.00 in0.0 mm
04:30 PM 47.4°F8.6°C 42.5°F5.8°C 83% 1.2 mph SSW1.9 kmh SSW 5.8 mph9.3 kmh 30.58 in1035.6 mb - 0.00 in0.0 mm 0.00 in0.0 mm
04:40 PM 47.2°F8.4°C 42.0°F5.6°C 82% 2.3 mph SW3.7 kmh SW 5.8 mph9.3 kmh 30.58 in1035.6 mb - 0.00 in0.0 mm 0.00 in0.0 mm
04:50 PM 47.2°F8.4°C 41.3°F5.2°C 80% 1.2 mph SW1.9 kmh SW 2.3 mph3.7 kmh 30.58 in1035.6 mb - 0.00 in0.0 mm 0.00 in0.0 mm
05:00 PM 47.2°F8.4°C 41.3°F5.2°C 80% 1.2 mph SW1.9 kmh SW 3.5 mph5.6 kmh 30.58 in1035.6 mb - 0.00 in0.0 mm 0.00 in0.0 mm
05:10 PM 47.2°F8.4°C 41.3°F5.2°C 80% 1.2 mph SW1.9 kmh SW 4.6 mph7.4 kmh 30.58 in1035.6 mb - 0.00 in0.0 mm 0.00 in0.0 mm
05:20 PM 47.2°F8.4°C 41.3°F5.2°C 80% 1.2 mph SW1.9 kmh SW 1.2 mph1.9 kmh 30.57 in1035.2 mb - 0.00 in0.0 mm 0.00 in0.0 mm
05:30 PM 47.2°F8.4°C 41.3°F5.2°C 80% Calm Calm 1.2 mph1.9 kmh 30.57 in1035.2 mb - 0.00 in0.0 mm 0.00 in0.0 mm
05:40 PM 47.2°F8.4°C 41.3°F5.2°C 80% 1.2 mph SW1.9 kmh SW 1.2 mph1.9 kmh 30.57 in1035.2 mb - 0.00 in0.0 mm 0.00 in0.0 mm
05:50 PM 47.1°F8.4°C 41.2°F5.1°C 80% 1.2 mph SSW1.9 kmh SSW 4.6 mph7.4 kmh 30.57 in1035.2 mb - 0.00 in0.0 mm 0.00 in0.0 mm
06:00 PM 47.1°F8.4°C 41.6°F5.3°C 81% Calm Calm 6.9 mph11.1 kmh 30.57 in1035.2 mb - 0.00 in0.0 mm 0.00 in0.0 mm
06:10 PM 47.0°F8.3°C 41.5°F5.3°C 81% Calm Calm -- 30.57 in1035.2 mb - 0.00 in0.0 mm 0.00 in0.0 mm
06:20 PM 47.0°F8.3°C 41.5°F5.3°C 81% 1.2 mph SW1.9 kmh SW 3.5 mph5.6 kmh 30.57 in1035.2 mb - 0.00 in0.0 mm 0.00 in0.0 mm
06:30 PM 47.0°F8.3°C 41.5°F5.3°C 81% 1.2 mph SW1.9 kmh SW 3.5 mph5.6 kmh 30.57 in1035.2 mb - 0.00 in0.0 mm 0.00 in0.0 mm
06:40 PM 46.9°F8.3°C 41.4°F5.2°C 81% Calm Calm 3.5 mph5.6 kmh 30.57 in1035.2 mb - 0.00 in0.0 mm 0.00 in0.0 mm
06:50 PM 46.9°F8.3°C 41.4°F5.2°C 81% Calm Calm 2.3 mph3.7 kmh 30.57 in1035.2 mb - 0.00 in0.0 mm 0.00 in0.0 mm
07:00 PM 46.8°F8.2°C 41.3°F5.2°C 81% 3.5 mph SW5.6 kmh SW 4.6 mph7.4 kmh 30.57 in1035.2 mb - 0.00 in0.0 mm 0.00 in0.0 mm
07:10 PM 46.7°F8.2°C 41.2°F5.1°C 81% 1.2 mph SW1.9 kmh SW 3.5 mph5.6 kmh 30.57 in1035.2 mb - 0.00 in0.0 mm 0.00 in0.0 mm
07:20 PM 46.7°F8.2°C 41.2°F5.1°C 81% 1.2 mph S1.9 kmh S 4.6 mph7.4 kmh 30.57 in1035.2 mb - 0.00 in0.0 mm 0.00 in0.0 mm
07:30 PM 46.7°F8.2°C 40.9°F4.9°C 80% 1.2 mph SW1.9 kmh SW 3.5 mph5.6 kmh 30.57 in1035.2 mb - 0.00 in0.0 mm 0.00 in0.0 mm
07:40 PM 46.8°F8.2°C 41.0°F5.0°C 80% 2.3 mph SW3.7 kmh SW 4.6 mph7.4 kmh 30.57 in1035.2 mb - 0.00 in0.0 mm 0.00 in0.0 mm
07:50 PM 46.9°F8.3°C 41.1°F5.1°C 80% 1.2 mph SW1.9 kmh SW 4.6 mph7.4 kmh 30.57 in1035.2 mb - 0.00 in0.0 mm 0.00 in0.0 mm
08:00 PM 46.8°F8.2°C 41.0°F5.0°C 80% Calm Calm -- 30.57 in1035.2 mb - 0.00 in0.0 mm 0.00 in0.0 mm
08:10 PM 46.8°F8.2°C 41.0°F5.0°C 80% Calm Calm -- 30.56 in1034.9 mb - 0.00 in0.0 mm 0.00 in0.0 mm
08:20 PM 46.7°F8.2°C 40.9°F4.9°C 80% Calm Calm -- 30.56 in1034.9 mb - 0.00 in0.0 mm 0.00 in0.0 mm
08:30 PM 46.7°F8.2°C 40.9°F4.9°C 80% 2.3 mph SW3.7 kmh SW 4.6 mph7.4 kmh 30.56 in1034.9 mb - 0.00 in0.0 mm 0.00 in0.0 mm
08:40 PM 46.8°F8.2°C 41.0°F5.0°C 80% 1.2 mph SSW1.9 kmh SSW 2.3 mph3.7 kmh 30.56 in1034.9 mb - 0.00 in0.0 mm 0.00 in0.0 mm
08:50 PM 46.8°F8.2°C 41.0°F5.0°C 80% 1.2 mph SW1.9 kmh SW 3.5 mph5.6 kmh 30.56 in1034.9 mb - 0.00 in0.0 mm 0.00 in0.0 mm
09:00 PM 46.8°F8.2°C 40.7°F4.8°C 79% 3.5 mph SW5.6 kmh SW 4.6 mph7.4 kmh 30.56 in1034.9 mb - 0.00 in0.0 mm 0.00 in0.0 mm
09:10 PM 46.9°F8.3°C 40.7°F4.8°C 79% Calm Calm 2.3 mph3.7 kmh 30.56 in1034.9 mb - 0.00 in0.0 mm 0.00 in0.0 mm
09:20 PM 46.9°F8.3°C 41.1°F5.1°C 80% 3.5 mph SSW5.6 kmh SSW 5.8 mph9.3 kmh 30.56 in1034.9 mb - 0.00 in0.0 mm 0.00 in0.0 mm
09:30 PM 47.0°F8.3°C 41.1°F5.1°C 80% 2.3 mph SSW3.7 kmh SSW 5.8 mph9.3 kmh 30.56 in1034.9 mb - 0.00 in0.0 mm 0.00 in0.0 mm
09:40 PM 47.0°F8.3°C 41.1°F5.1°C 80% Calm Calm 2.3 mph3.7 kmh 30.56 in1034.9 mb - 0.00 in0.0 mm 0.00 in0.0 mm
09:50 PM 47.0°F8.3°C 41.1°F5.1°C 80% 1.2 mph SW1.9 kmh SW 3.5 mph5.6 kmh 30.55 in1034.5 mb - 0.00 in0.0 mm 0.00 in0.0 mm
10:00 PM 47.0°F8.3°C 41.1°F5.1°C 80% Calm Calm -- 30.55 in1034.5 mb - 0.00 in0.0 mm 0.00 in0.0 mm
10:10 PM 47.0°F8.3°C 41.1°F5.1°C 80% Calm Calm -- 30.55 in1034.5 mb - 0.00 in0.0 mm 0.00 in0.0 mm
10:20 PM 47.0°F8.3°C 41.1°F5.1°C 80% 1.2 mph SW1.9 kmh SW 4.6 mph7.4 kmh 30.54 in1034.2 mb - 0.00 in0.0 mm 0.00 in0.0 mm
10:30 PM 47.0°F8.3°C 41.1°F5.1°C 80% Calm Calm -- 30.54 in1034.2 mb - 0.00 in0.0 mm 0.00 in0.0 mm
10:40 PM 46.9°F8.3°C 41.0°F5.0°C 80% Calm Calm -- 30.53 in1033.9 mb - 0.00 in0.0 mm 0.00 in0.0 mm
10:50 PM 46.7°F8.2°C 40.9°F4.9°C 80% Calm Calm -- 30.53 in1033.9 mb - 0.00 in0.0 mm 0.00 in0.0 mm
11:00 PM 46.6°F8.1°C 40.8°F4.9°C 80% Calm Calm -- 30.53 in1033.9 mb - 0.00 in0.0 mm 0.00 in0.0 mm
11:10 PM 46.5°F8.1°C 41.0°F5.0°C 81% Calm Calm -- 30.54 in1034.2 mb - 0.00 in0.0 mm 0.00 in0.0 mm
11:20 PM 46.4°F8.0°C 41.2°F5.1°C 82% Calm Calm -- 30.54 in1034.2 mb - 0.00 in0.0 mm 0.00 in0.0 mm
11:30 PM 46.4°F8.0°C 40.9°F4.9°C 81% Calm Calm 1.2 mph1.9 kmh 30.53 in1033.9 mb - 0.00 in0.0 mm 0.00 in0.0 mm
11:40 PM 46.5°F8.1°C 41.0°F5.0°C 81% Calm Calm -- 30.53 in1033.9 mb - 0.00 in0.0 mm 0.00 in0.0 mm
11:50 PM 46.5°F8.1°C 41.0°F5.0°C 81% Calm Calm -- 30.52 in1033.5 mb - 0.00 in0.0 mm 0.00 in0.0 mm